Station Historical Data
Daily Summary for February 21, 2017 Units:  English    Metric   Both
Next Day »
Daily Weekly Monthly Yearly Custom
  High: Low: Average:
Temperature: 46.9 °F 40.1 °F 42.9 °F
Dew Point: 45.5 °F 38.5 °F 41.3 °F
Humidity: 95% 94% 94%
Wind Speed: 29.0mph 0.0mph 6.2mph
Wind Gust: 38.0mph - -
Wind- - SSW
Pressure: 30.26 in 30.06 in -
Precipitation: 1.22 in    
Historical Graphs
 
 
Tabular Data for February 21, 2017
Time Temperature Dew Point Pressure Wind Wind Speed Wind Gust Humidity Rainfall Rate (Hourly) solar Conditions
00:03 46.8 °F 45.5 °F 30.06 in SSE 11.0 mph 29.0 mph 95% 0.00 in 0.00 W/m2
00:08 46.8 °F 45.5 °F 30.07 in SSW 24.0 mph 24.0 mph 95% 0.00 in 0.00 W/m2
00:13 46.8 °F 45.5 °F 30.06 in SSE 22.0 mph 34.0 mph 95% 0.00 in 0.00 W/m2
00:18 46.8 °F 45.2 °F 30.07 in SE 20.0 mph 26.0 mph 94% 0.00 in 0.00 W/m2
00:24 46.8 °F 45.2 °F 30.08 in SW 9.0 mph 30.0 mph 94% 0.00 in 0.00 W/m2
00:29 46.8 °F 45.5 °F 30.08 in SW 7.0 mph 30.0 mph 95% 0.00 in 0.00 W/m2
00:34 46.8 °F 45.5 °F 30.09 in SSW 21.0 mph 35.0 mph 95% 0.00 in 0.00 W/m2
00:39 46.9 °F 45.5 °F 30.09 in SSW 23.0 mph 30.0 mph 95% 0.00 in 0.00 W/m2
00:44 46.9 °F 45.5 °F 30.09 in SE 9.0 mph 38.0 mph 95% 0.00 in 0.00 W/m2
00:49 46.8 °F 45.5 °F 30.08 in South 11.0 mph 32.0 mph 95% 0.00 in 0.00 W/m2
00:54 46.7 °F 45.1 °F 30.08 in SSW 22.0 mph 32.0 mph 94% 0.00 in 0.00 W/m2
00:59 46.7 °F 45.3 °F 30.08 in South 15.0 mph 38.0 mph 95% 0.00 in 0.00 W/m2
01:04 46.7 °F 45.1 °F 30.08 in South 10.0 mph 20.0 mph 94% 0.00 in 0.00 W/m2
01:09 46.7 °F 45.1 °F 30.08 in South 9.0 mph 25.0 mph 94% 0.08 in 0.00 W/m2
01:14 46.7 °F 45.1 °F 30.09 in South 19.0 mph 27.0 mph 94% 0.16 in 0.00 W/m2
01:19 46.7 °F 45.1 °F 30.08 in South 6.0 mph 25.0 mph 94% 0.07 in 0.00 W/m2
01:24 46.7 °F 45.1 °F 30.08 in South 21.0 mph 34.0 mph 94% 0.05 in 0.00 W/m2
01:29 46.7 °F 45.1 °F 30.09 in SSW 23.0 mph 24.0 mph 94% 0.19 in 0.00 W/m2
01:34 46.7 °F 45.1 °F 30.09 in SW 12.0 mph 16.0 mph 94% 1.10 in 0.00 W/m2
01:39 46.6 °F 45.0 °F 30.08 in Calm   19.0 mph 94% 0.58 in 0.00 W/m2
01:44 46.6 °F 45.0 °F 30.07 in SW 9.0 mph 16.0 mph 94% 0.48 in 0.00 W/m2
01:49 46.6 °F 45.0 °F 30.07 in SW 5.0 mph 17.0 mph 94% 0.14 in 0.00 W/m2
01:54 46.6 °F 45.0 °F 30.08 in SW 11.0 mph 30.0 mph 94% 0.06 in 0.00 W/m2
01:59 46.7 °F 45.1 °F 30.08 in SW 21.0 mph 28.0 mph 94% 0.04 in 0.00 W/m2
02:04 46.6 °F 45.0 °F 30.08 in South 21.0 mph 32.0 mph 94% 0.23 in 0.00 W/m2
02:09 46.3 °F 44.7 °F 30.09 in SSW 13.0 mph 29.0 mph 94% 0.12 in 0.00 W/m2
02:14 46.1 °F 44.5 °F 30.08 in Calm   18.0 mph 94% 0.31 in 0.00 W/m2
02:19 46.1 °F 44.5 °F 30.09 in SSW 7.0 mph 21.0 mph 94% 0.20 in 0.00 W/m2
02:24 46.2 °F 44.6 °F 30.10 in South 15.0 mph 28.0 mph 94% 0.14 in 0.00 W/m2
02:29 46.2 °F 44.6 °F 30.10 in SSW 1.0 mph 29.0 mph 94% 0.06 in 0.00 W/m2
02:34 46.2 °F 44.6 °F 30.10 in SW 18.0 mph 24.0 mph 94% 0.04 in 0.00 W/m2
02:39 46.2 °F 44.6 °F 30.10 in SSW 21.0 mph 22.0 mph 94% 0.00 in 0.00 W/m2
02:44 46.1 °F 44.5 °F 30.10 in SSW 6.0 mph 33.0 mph 94% 0.16 in 0.00 W/m2
02:49 45.8 °F 44.2 °F 30.10 in SW 2.0 mph 26.0 mph 94% 0.24 in 0.00 W/m2
02:54 45.6 °F 44.0 °F 30.10 in SSW 8.0 mph 22.0 mph 94% 0.14 in 0.00 W/m2
02:59 45.6 °F 44.0 °F 30.10 in SW 10.0 mph 21.0 mph 94% 0.51 in 0.00 W/m2
03:04 45.7 °F 44.1 °F 30.10 in WSW 8.0 mph 24.0 mph 94% 0.31 in 0.00 W/m2
03:09 45.7 °F 44.1 °F 30.11 in WSW 7.0 mph 26.0 mph 94% 0.34 in 0.00 W/m2
03:14 45.7 °F 44.1 °F 30.11 in SW 29.0 mph 29.0 mph 94% 0.09 in 0.00 W/m2
03:19 45.7 °F 44.1 °F 30.12 in WSW 16.0 mph 22.0 mph 94% 0.05 in 0.00 W/m2
03:24 45.5 °F 43.9 °F 30.11 in SW 11.0 mph 26.0 mph 94% 0.04 in 0.00 W/m2
03:29 45.4 °F 43.8 °F 30.11 in SSW 11.0 mph 24.0 mph 94% 0.00 in 0.00 W/m2
03:34 45.4 °F 43.8 °F 30.11 in WSW 8.0 mph 25.0 mph 94% 0.00 in 0.00 W/m2
03:39 45.3 °F 43.7 °F 30.11 in SW 11.0 mph 21.0 mph 94% 0.00 in 0.00 W/m2
03:44 45.3 °F 43.7 °F 30.11 in SW 3.0 mph 13.0 mph 94% 0.00 in 0.00 W/m2
03:49 45.3 °F 43.7 °F 30.11 in SSW 13.0 mph 15.0 mph 94% 0.00 in 0.00 W/m2
03:54 45.4 °F 43.8 °F 30.11 in SW 5.0 mph 12.0 mph 94% 0.00 in 0.00 W/m2
03:59 45.4 °F 43.8 °F 30.11 in SW 12.0 mph 18.0 mph 94% 0.04 in 0.00 W/m2
04:04 45.2 °F 43.6 °F 30.11 in SW 12.0 mph 18.0 mph 94% 0.38 in 0.00 W/m2
04:09 45.1 °F 43.5 °F 30.11 in SSW 3.0 mph 19.0 mph 94% 0.17 in 0.00 W/m2
04:14 45.0 °F 43.4 °F 30.11 in SW 10.0 mph 32.0 mph 94% 0.08 in 0.00 W/m2
04:19 45.1 °F 43.5 °F 30.12 in SSW 13.0 mph 30.0 mph 94% 0.05 in 0.00 W/m2
04:24 45.1 °F 43.5 °F 30.12 in SW 14.0 mph 24.0 mph 94% 0.00 in 0.00 W/m2
04:29 45.1 °F 43.5 °F 30.12 in South 9.0 mph 25.0 mph 94% 0.00 in 0.00 W/m2
04:34 45.1 °F 43.5 °F 30.12 in SSW 18.0 mph 30.0 mph 94% 0.00 in 0.00 W/m2
04:39 45.1 °F 43.5 °F 30.12 in SW 12.0 mph 24.0 mph 94% 0.00 in 0.00 W/m2
04:44 45.0 °F 43.4 °F 30.12 in West 6.0 mph 30.0 mph 94% 0.00 in 0.00 W/m2
04:49 44.9 °F 43.3 °F 30.12 in South 21.0 mph 28.0 mph 94% 0.00 in 0.00 W/m2
04:54 44.8 °F 43.2 °F 30.13 in SSW 4.0 mph 21.0 mph 94% 0.00 in 0.00 W/m2
04:59 44.8 °F 43.2 °F 30.13 in West 4.0 mph 30.0 mph 94% 0.00 in 0.00 W/m2
05:04 44.7 °F 43.1 °F 30.13 in SSW 13.0 mph 24.0 mph 94% 0.00 in 0.00 W/m2
05:09 44.7 °F 43.1 °F 30.13 in SSW 14.0 mph 26.0 mph 94% 0.00 in 0.00 W/m2
05:14 44.7 °F 43.1 °F 30.13 in WSW 12.0 mph 24.0 mph 94% 0.00 in 0.00 W/m2
05:19 44.7 °F 43.1 °F 30.13 in SW 11.0 mph 26.0 mph 94% 0.00 in 0.00 W/m2
05:24 44.7 °F 43.1 °F 30.13 in WNW 10.0 mph 16.0 mph 94% 0.00 in 0.00 W/m2
05:30 44.7 °F 43.1 °F 30.13 in WSW 18.0 mph 24.0 mph 94% 0.00 in 0.00 W/m2
05:35 44.6 °F 43.0 °F 30.13 in SW 7.0 mph 18.0 mph 94% 0.00 in 0.00 W/m2
05:40 44.5 °F 42.9 °F 30.13 in WSW 19.0 mph 20.0 mph 94% 0.06 in 0.00 W/m2
05:45 44.5 °F 42.9 °F 30.14 in WSW 22.0 mph 22.0 mph 94% 0.31 in 0.00 W/m2
05:50 44.3 °F 42.7 °F 30.14 in West 14.0 mph 21.0 mph 94% 0.13 in 0.00 W/m2
05:55 44.0 °F 42.4 °F 30.14 in SW 25.0 mph 27.0 mph 94% 0.09 in 0.00 W/m2
06:00 43.6 °F 42.0 °F 30.15 in SW 14.0 mph 25.0 mph 94% 0.05 in 0.00 W/m2
06:05 43.3 °F 41.7 °F 30.15 in West 16.0 mph 21.0 mph 94% 0.04 in 0.00 W/m2
06:10 43.1 °F 41.5 °F 30.15 in SW 12.0 mph 23.0 mph 94% 0.00 in 0.00 W/m2
06:15 42.9 °F 41.3 °F 30.15 in West 15.0 mph 23.0 mph 94% 0.00 in 0.00 W/m2
06:20 42.7 °F 41.1 °F 30.16 in West 3.0 mph 24.0 mph 94% 0.00 in 0.00 W/m2
06:25 42.5 °F 40.9 °F 30.16 in SSW 5.0 mph 16.0 mph 94% 0.00 in 0.00 W/m2
06:30 42.4 °F 40.8 °F 30.16 in SW 8.0 mph 20.0 mph 94% 0.00 in 0.00 W/m2
06:35 42.4 °F 40.8 °F 30.16 in SW 22.0 mph 27.0 mph 94% 0.00 in 0.00 W/m2
06:40 42.3 °F 40.7 °F 30.17 in WNW 15.0 mph 24.0 mph 94% 0.00 in 0.00 W/m2
06:45 42.2 °F 40.6 °F 30.17 in West 8.0 mph 20.0 mph 94% 0.00 in 0.00 W/m2
06:50 42.2 °F 40.6 °F 30.17 in WSW 12.0 mph 24.0 mph 94% 0.00 in 0.00 W/m2
06:55 42.1 °F 40.5 °F 30.17 in SW 9.0 mph 20.0 mph 94% 0.00 in 0.00 W/m2
07:00 42.1 °F 40.5 °F 30.18 in WSW 5.0 mph 22.0 mph 94% 0.00 in 0.00 W/m2
07:05 42.1 °F 40.5 °F 30.19 in West 7.0 mph 22.0 mph 94% 0.00 in 0.00 W/m2
07:10 42.0 °F 40.4 °F 30.19 in WSW 7.0 mph 18.0 mph 94% 0.00 in 0.00 W/m2
07:15 42.1 °F 40.5 °F 30.19 in SSW 7.0 mph 22.0 mph 94% 0.00 in 0.00 W/m2
07:20 42.0 °F 40.4 °F 30.19 in WSW 12.0 mph 21.0 mph 94% 0.00 in 7.00 W/m2
07:25 42.1 °F 40.5 °F 30.20 in West 8.0 mph 20.0 mph 94% 0.00 in 12.00 W/m2
07:30 42.1 °F 40.5 °F 30.20 in West 4.0 mph 17.0 mph 94% 0.00 in 14.00 W/m2
07:35 42.0 °F 40.4 °F 30.20 in WSW 12.0 mph 19.0 mph 94% 0.00 in 16.00 W/m2
07:40 42.1 °F 40.5 °F 30.20 in WSW 3.0 mph 18.0 mph 94% 0.00 in 18.00 W/m2
07:45 42.1 °F 40.5 °F 30.20 in WSW 8.0 mph 15.0 mph 94% 0.00 in 33.00 W/m2
07:50 42.2 °F 40.6 °F 30.20 in West 7.0 mph 11.0 mph 94% 0.00 in 28.00 W/m2
07:55 42.2 °F 40.6 °F 30.20 in SW 6.0 mph 19.0 mph 94% 0.00 in 26.00 W/m2
08:00 42.3 °F 40.7 °F 30.20 in SSW 8.0 mph 18.0 mph 94% 0.00 in 18.00 W/m2
08:05 42.3 °F 40.7 °F 30.20 in West 13.0 mph 13.0 mph 94% 0.00 in 19.00 W/m2
08:10 42.3 °F 40.7 °F 30.21 in SW 16.0 mph 17.0 mph 94% 0.00 in 28.00 W/m2
08:15 42.4 °F 40.8 °F 30.21 in SSE 7.0 mph 17.0 mph 94% 0.00 in 25.00 W/m2
08:20 42.3 °F 40.7 °F 30.21 in WSW 6.0 mph 20.0 mph 94% 0.00 in 19.00 W/m2
08:25 42.3 °F 40.7 °F 30.21 in WSW 6.0 mph 14.0 mph 94% 0.00 in 25.00 W/m2
08:30 42.3 °F 40.7 °F 30.21 in SW 13.0 mph 13.0 mph 94% 0.00 in 19.00 W/m2
08:35 42.3 °F 40.7 °F 30.21 in WSW 14.0 mph 17.0 mph 94% 0.00 in 25.00 W/m2
08:40 42.2 °F 40.6 °F 30.22 in SW 5.0 mph 14.0 mph 94% 0.00 in 19.00 W/m2
08:45 42.2 °F 40.6 °F 30.22 in SSW 8.0 mph 14.0 mph 94% 0.00 in 26.00 W/m2
08:50 42.2 °F 40.6 °F 30.22 in SSW 6.0 mph 17.0 mph 94% 0.00 in 77.00 W/m2
08:55 42.2 °F 40.6 °F 30.22 in SW 7.0 mph 14.0 mph 94% 0.00 in 54.00 W/m2
09:00 42.4 °F 40.8 °F 30.23 in South 9.0 mph 13.0 mph 94% 0.00 in 97.00 W/m2
09:05 42.4 °F 40.8 °F 30.23 in WSW 5.0 mph 17.0 mph 94% 0.00 in 104.00 W/m2
09:10 42.5 °F 40.9 °F 30.23 in SW 11.0 mph 20.0 mph 94% 0.00 in 97.00 W/m2
09:15 42.5 °F 40.9 °F 30.23 in WSW 11.0 mph 16.0 mph 94% 0.00 in 40.00 W/m2
09:20 42.5 °F 40.9 °F 30.23 in SW 3.0 mph 15.0 mph 94% 0.00 in 23.00 W/m2
09:25 42.5 °F 40.9 °F 30.24 in SW 8.0 mph 16.0 mph 94% 0.00 in 30.00 W/m2
09:30 42.6 °F 41.0 °F 30.24 in Calm   14.0 mph 94% 0.00 in 39.00 W/m2
09:35 42.6 °F 41.0 °F 30.23 in SSW 6.0 mph 10.0 mph 94% 0.00 in 39.00 W/m2
09:40 42.7 °F 41.1 °F 30.24 in SW 2.0 mph 17.0 mph 94% 0.00 in 37.00 W/m2
09:45 42.6 °F 41.0 °F 30.24 in South 3.0 mph 15.0 mph 94% 0.00 in 42.00 W/m2
09:50 42.6 °F 41.0 °F 30.24 in Calm   16.0 mph 94% 0.00 in 81.00 W/m2
09:55 42.6 °F 41.0 °F 30.24 in Calm   12.0 mph 94% 0.00 in 49.00 W/m2
10:00 42.6 °F 41.0 °F 30.24 in WSW 13.0 mph 13.0 mph 94% 0.00 in 62.00 W/m2
10:05 42.7 °F 41.1 °F 30.25 in WSW 4.0 mph 13.0 mph 94% 0.00 in 109.00 W/m2
10:10 42.9 °F 41.3 °F 30.24 in Calm   13.0 mph 94% 0.00 in 120.00 W/m2
10:15 42.9 °F 41.3 °F 30.25 in West 4.0 mph 11.0 mph 94% 0.00 in 134.00 W/m2
10:20 43.0 °F 41.4 °F 30.25 in SW 8.0 mph 12.0 mph 94% 0.00 in 91.00 W/m2
10:25 43.0 °F 41.4 °F 30.25 in Calm   13.0 mph 94% 0.00 in 74.00 W/m2
10:30 43.1 °F 41.5 °F 30.25 in SSW 2.0 mph 12.0 mph 94% 0.00 in 51.00 W/m2
10:35 43.1 °F 41.5 °F 30.26 in SW 6.0 mph 11.0 mph 94% 0.00 in 77.00 W/m2
10:40 43.1 °F 41.5 °F 30.26 in Calm   12.0 mph 94% 0.00 in 214.00 W/m2
10:45 43.1 °F 41.5 °F 30.26 in Calm   11.0 mph 94% 0.00 in 218.00 W/m2
10:50 43.3 °F 42.0 °F 30.26 in Calm   10.0 mph 95% 0.00 in 236.00 W/m2
10:55 43.4 °F 41.8 °F 30.26 in WSW 6.0 mph 19.0 mph 94% 0.00 in 213.00 W/m2
11:00 43.7 °F 42.4 °F 30.26 in SSW 2.0 mph 14.0 mph 95% 0.00 in 127.00 W/m2
11:05 43.7 °F 42.4 °F 30.26 in WSW 8.0 mph 14.0 mph 95% 0.00 in 172.00 W/m2
11:10 43.7 °F 42.4 °F 30.26 in South 8.0 mph 15.0 mph 95% 0.00 in 130.00 W/m2
11:13 43.7 °F 42.4 °F 30.25 in SSW 6.0 mph 12.0 mph 95% 0.00 in 86.00 W/m2
11:18 43.7 °F 42.4 °F 30.25 in SSW 9.0 mph 12.0 mph 95% 0.00 in 53.00 W/m2
11:23 43.7 °F 42.4 °F 30.25 in SW 5.0 mph 11.0 mph 95% 0.54 in 72.00 W/m2
11:28 43.4 °F 41.8 °F 30.25 in South 3.0 mph 17.0 mph 94% 0.14 in 179.00 W/m2
11:33 43.3 °F 41.7 °F 30.25 in SSW 8.0 mph 17.0 mph 94% 0.09 in 193.00 W/m2
11:38 43.3 °F 41.7 °F 30.25 in Calm   14.0 mph 94% 0.05 in 248.00 W/m2
11:43 43.5 °F 41.9 °F 30.24 in SW 16.0 mph 18.0 mph 94% 0.04 in 332.00 W/m2
11:48 43.7 °F 42.4 °F 30.24 in SW 10.0 mph 24.0 mph 95% 0.00 in 327.00 W/m2
11:53 44.0 °F 42.7 °F 30.24 in SSW 11.0 mph 16.0 mph 95% 0.00 in 388.00 W/m2
11:58 44.2 °F 42.9 °F 30.23 in SSE 5.0 mph 10.0 mph 95% 0.00 in 267.00 W/m2
12:03 44.3 °F 43.0 °F 30.24 in SSW 12.0 mph 19.0 mph 95% 0.00 in 128.00 W/m2
12:08 44.2 °F 42.6 °F 30.23 in SSW 5.0 mph 13.0 mph 94% 0.00 in 69.00 W/m2
12:13 44.2 °F 42.6 °F 30.23 in SW 10.0 mph 18.0 mph 94% 0.00 in 37.00 W/m2
12:18 44.1 °F 42.5 °F 30.24 in West 9.0 mph 12.0 mph 94% 0.00 in 28.00 W/m2
12:23 44.0 °F 42.4 °F 30.24 in WSW 14.0 mph 14.0 mph 94% 0.00 in 23.00 W/m2
12:28 43.6 °F 42.0 °F 30.24 in West 4.0 mph 18.0 mph 94% 0.18 in 16.00 W/m2
12:33 43.0 °F 41.4 °F 30.24 in Calm   10.0 mph 94% 0.29 in 18.00 W/m2
12:38 42.4 °F 40.8 °F 30.24 in Calm   10.0 mph 94% 0.42 in 19.00 W/m2
12:43 41.9 °F 40.3 °F 30.24 in Calm     94% 0.70 in 18.00 W/m2
12:48 41.2 °F 39.6 °F 30.23 in West 6.0 mph 10.0 mph 94% 0.71 in 30.00 W/m2
12:53 40.7 °F 39.1 °F 30.22 in Calm   1.0 mph 94% 0.25 in 26.00 W/m2
12:58 40.4 °F 38.8 °F 30.22 in Calm   8.0 mph 94% 0.13 in 23.00 W/m2
13:03 40.2 °F 38.6 °F 30.22 in West 4.0 mph 9.0 mph 94% 0.12 in 39.00 W/m2
13:08 40.3 °F 38.7 °F 30.23 in Calm     94% 0.06 in 33.00 W/m2
13:13 40.4 °F 38.8 °F 30.23 in Calm   9.0 mph 94% 0.04 in 37.00 W/m2
13:18 40.8 °F 39.2 °F 30.23 in Calm   12.0 mph 94% 0.00 in 35.00 W/m2
13:23 41.1 °F 39.5 °F 30.22 in SW 4.0 mph 9.0 mph 94% 0.00 in 79.00 W/m2
13:28 41.5 °F 39.9 °F 30.22 in Calm   7.0 mph 94% 0.00 in 102.00 W/m2
13:33 41.8 °F 40.2 °F 30.22 in SW 7.0 mph 13.0 mph 94% 0.00 in 84.00 W/m2
13:38 42.1 °F 40.5 °F 30.22 in South 6.0 mph 8.0 mph 94% 0.00 in 135.00 W/m2
13:43 42.2 °F 40.6 °F 30.21 in South 9.0 mph 11.0 mph 94% 0.00 in 128.00 W/m2
13:48 42.4 °F 40.8 °F 30.21 in SSW 3.0 mph 14.0 mph 94% 0.00 in 283.00 W/m2
13:53 42.5 °F 41.2 °F 30.21 in SSW 6.0 mph 10.0 mph 95% 0.00 in 139.00 W/m2
13:58 42.7 °F 41.4 °F 30.22 in Calm   7.0 mph 95% 0.00 in 158.00 W/m2
13:59 42.7 °F 41.4 °F 30.22 in Calm   7.0 mph 95% 0.00 in 158.00 W/m2
14:04 42.9 °F 41.3 °F 30.21 in SSE 5.0 mph 13.0 mph 94% 0.00 in 357.00 W/m2
14:09 43.0 °F 41.4 °F 30.21 in SSE 4.0 mph 13.0 mph 94% 0.00 in 366.00 W/m2
14:14 43.1 °F 41.5 °F 30.21 in Calm   8.0 mph 94% 0.00 in 148.00 W/m2
14:19 43.2 °F 41.9 °F 30.21 in SSE 4.0 mph 10.0 mph 95% 0.00 in 93.00 W/m2
14:24 43.1 °F 41.8 °F 30.21 in South 5.0 mph 9.0 mph 95% 0.00 in 125.00 W/m2
14:29 43.0 °F 41.7 °F 30.21 in Calm     95% 0.00 in 97.00 W/m2
14:34 42.8 °F 41.2 °F 30.21 in Calm     94% 0.00 in 77.00 W/m2
14:39 42.7 °F 41.1 °F 30.21 in Calm     94% 0.00 in 46.00 W/m2
14:44 42.6 °F 41.0 °F 30.21 in Calm     94% 0.00 in 47.00 W/m2
14:49 42.5 °F 40.9 °F 30.20 in Calm     94% 0.00 in 32.00 W/m2
14:54 42.5 °F 40.9 °F 30.20 in Calm     94% 0.00 in 21.00 W/m2
14:59 42.5 °F 40.9 °F 30.21 in Calm     94% 0.00 in 14.00 W/m2
15:04 42.4 °F 40.8 °F 30.21 in Calm     94% 0.12 in 28.00 W/m2
15:09 42.4 °F 40.8 °F 30.21 in SSE 4.0 mph 11.0 mph 94% 0.18 in 53.00 W/m2
15:14 42.2 °F 40.6 °F 30.21 in South 8.0 mph 12.0 mph 94% 0.07 in 42.00 W/m2
15:19 42.1 °F 40.5 °F 30.21 in South 8.0 mph 16.0 mph 94% 0.04 in 39.00 W/m2
15:24 42.0 °F 40.4 °F 30.21 in SSW 8.0 mph 10.0 mph 94% 0.00 in 56.00 W/m2
15:29 41.9 °F 40.3 °F 30.21 in Calm   6.0 mph 94% 0.00 in 56.00 W/m2
15:34 41.9 °F 40.3 °F 30.21 in Calm   10.0 mph 94% 0.00 in 74.00 W/m2
15:39 41.8 °F 40.2 °F 30.21 in SSW 5.0 mph 10.0 mph 94% 0.00 in 95.00 W/m2
15:44 41.8 °F 40.2 °F 30.21 in South 10.0 mph 11.0 mph 94% 0.00 in 72.00 W/m2
15:49 41.9 °F 40.3 °F 30.21 in Calm   10.0 mph 94% 0.00 in 58.00 W/m2
15:54 41.9 °F 40.3 °F 30.21 in SW 6.0 mph 9.0 mph 94% 0.00 in 60.00 W/m2
15:59 41.8 °F 40.2 °F 30.21 in SSW 3.0 mph 9.0 mph 94% 0.00 in 46.00 W/m2
16:04 41.8 °F 40.2 °F 30.21 in Calm   11.0 mph 94% 0.00 in 33.00 W/m2
16:09 41.8 °F 40.2 °F 30.21 in Calm   8.0 mph 94% 0.00 in 53.00 W/m2
16:14 41.8 °F 40.2 °F 30.21 in South 5.0 mph 15.0 mph 94% 0.00 in 72.00 W/m2
16:19 41.9 °F 40.3 °F 30.21 in South 12.0 mph 15.0 mph 94% 0.00 in 72.00 W/m2
16:24 41.9 °F 40.3 °F 30.21 in SSW 6.0 mph 15.0 mph 94% 0.00 in 47.00 W/m2
16:29 41.9 °F 40.3 °F 30.21 in SSW 6.0 mph 10.0 mph 94% 0.00 in 39.00 W/m2
16:34 41.9 °F 40.3 °F 30.21 in SSW 8.0 mph 11.0 mph 94% 0.00 in 23.00 W/m2
16:39 41.9 °F 40.3 °F 30.21 in SSW 3.0 mph 15.0 mph 94% 0.00 in 23.00 W/m2
16:44 41.9 °F 40.3 °F 30.21 in SSW 9.0 mph 10.0 mph 94% 0.00 in 12.00 W/m2
16:49 41.9 °F 40.3 °F 30.21 in South 7.0 mph 11.0 mph 94% 0.00 in 9.00 W/m2
16:54 41.8 °F 40.2 °F 30.21 in South 7.0 mph 9.0 mph 94% 0.00 in 14.00 W/m2
16:59 41.8 °F 40.2 °F 30.21 in Calm   7.0 mph 94% 0.00 in 16.00 W/m2
17:04 41.7 °F 40.1 °F 30.21 in Calm     94% 0.00 in 5.00 W/m2
17:09 41.6 °F 40.0 °F 30.21 in Calm     94% 0.00 in 11.00 W/m2
17:14 41.6 °F 40.0 °F 30.21 in South 2.0 mph 9.0 mph 94% 0.00 in 9.00 W/m2
17:19 41.6 °F 40.0 °F 30.20 in South 2.0 mph 9.0 mph 94% 0.00 in 7.00 W/m2
17:24 41.6 °F 40.0 °F 30.21 in South 9.0 mph 11.0 mph 94% 0.00 in 7.00 W/m2
17:29 41.5 °F 39.9 °F 30.21 in South 5.0 mph 7.0 mph 94% 0.31 in 5.00 W/m2
17:34 41.5 °F 39.9 °F 30.21 in Calm     94% 0.09 in 0.00 W/m2
17:39 41.5 °F 39.9 °F 30.21 in Calm   7.0 mph 94% 0.05 in 0.00 W/m2
17:44 41.5 °F 39.9 °F 30.21 in Calm     94% 0.00 in 0.00 W/m2
17:49 41.4 °F 39.8 °F 30.21 in Calm     94% 0.00 in 0.00 W/m2
17:54 41.4 °F 39.8 °F 30.22 in Calm     94% 0.00 in 0.00 W/m2
17:59 41.5 °F 39.9 °F 30.21 in Calm     94% 0.00 in 0.00 W/m2
18:04 41.5 °F 39.9 °F 30.22 in Calm     94% 0.00 in 0.00 W/m2
18:09 41.5 °F 39.9 °F 30.22 in Calm     94% 0.00 in 0.00 W/m2
18:14 41.5 °F 39.9 °F 30.22 in Calm     94% 0.00 in 0.00 W/m2
18:19 41.5 °F 39.9 °F 30.22 in Calm     94% 0.00 in 0.00 W/m2
18:24 41.5 °F 39.9 °F 30.22 in Calm     94% 0.00 in 0.00 W/m2
18:29 41.5 °F 39.9 °F 30.22 in Calm     94% 0.00 in 0.00 W/m2
18:34 41.5 °F 39.9 °F 30.22 in Calm     94% 0.00 in 0.00 W/m2
18:39 41.6 °F 40.0 °F 30.23 in Calm     94% 0.00 in 0.00 W/m2
18:44 41.5 °F 39.9 °F 30.23 in Calm     94% 0.00 in 0.00 W/m2
18:49 41.6 °F 40.0 °F 30.23 in Calm     94% 0.00 in 0.00 W/m2
18:54 41.6 °F 40.0 °F 30.23 in Calm     94% 0.00 in 0.00 W/m2
18:59 41.6 °F 40.0 °F 30.23 in Calm     94% 0.00 in 0.00 W/m2
19:04 41.5 °F 39.9 °F 30.23 in Calm     94% 0.00 in 0.00 W/m2
19:10 41.5 °F 39.9 °F 30.23 in Calm     94% 0.00 in 0.00 W/m2
19:15 41.5 °F 39.9 °F 30.23 in Calm     94% 0.00 in 0.00 W/m2
19:20 41.4 °F 39.8 °F 30.23 in Calm     94% 0.00 in 0.00 W/m2
19:25 41.4 °F 39.8 °F 30.23 in Calm     94% 0.00 in 0.00 W/m2
19:30 41.3 °F 39.7 °F 30.23 in Calm     94% 0.00 in 0.00 W/m2
19:35 41.3 °F 39.7 °F 30.23 in Calm     94% 0.00 in 0.00 W/m2
19:40 41.3 °F 39.7 °F 30.23 in Calm     94% 0.00 in 0.00 W/m2
19:45 41.3 °F 39.7 °F 30.23 in Calm     94% 0.00 in 0.00 W/m2
19:50 41.2 °F 39.6 °F 30.23 in SSE 6.0 mph 9.0 mph 94% 0.00 in 0.00 W/m2
19:55 41.2 °F 39.6 °F 30.23 in Calm   1.0 mph 94% 0.00 in 0.00 W/m2
20:00 41.1 °F 39.5 °F 30.24 in Calm   1.0 mph 94% 0.00 in 0.00 W/m2
20:05 41.1 °F 39.5 °F 30.23 in SSE 2.0 mph 9.0 mph 94% 0.00 in 0.00 W/m2
20:10 41.1 °F 39.5 °F 30.23 in Calm   1.0 mph 94% 0.00 in 0.00 W/m2
20:15 41.0 °F 39.4 °F 30.24 in Calm     94% 0.00 in 0.00 W/m2
20:20 41.0 °F 39.4 °F 30.23 in Calm     94% 0.00 in 0.00 W/m2
20:25 41.0 °F 39.4 °F 30.23 in Calm     94% 0.00 in 0.00 W/m2
20:30 41.0 °F 39.4 °F 30.23 in Calm     94% 0.00 in 0.00 W/m2
20:35 41.0 °F 39.4 °F 30.24 in Calm     94% 0.00 in 0.00 W/m2
20:40 40.9 °F 39.3 °F 30.24 in Calm     94% 0.00 in 0.00 W/m2
20:45 40.9 °F 39.3 °F 30.24 in Calm     94% 0.00 in 0.00 W/m2
20:50 40.9 °F 39.3 °F 30.24 in Calm     94% 0.00 in 0.00 W/m2
20:55 40.9 °F 39.3 °F 30.24 in Calm     94% 0.00 in 0.00 W/m2
21:00 40.9 °F 39.3 °F 30.24 in Calm     94% 0.00 in 0.00 W/m2
21:05 40.9 °F 39.3 °F 30.24 in Calm     94% 0.04 in 0.00 W/m2
21:10 40.9 °F 39.3 °F 30.24 in Calm     94% 0.04 in 0.00 W/m2
21:15 40.9 °F 39.3 °F 30.24 in Calm     94% 0.04 in 0.00 W/m2
21:20 40.9 °F 39.3 °F 30.24 in Calm     94% 0.04 in 0.00 W/m2
21:25 40.8 °F 39.2 °F 30.24 in Calm     94% 0.04 in 0.00 W/m2
21:30 40.8 °F 39.2 °F 30.24 in Calm     94% 0.10 in 0.00 W/m2
21:35 40.8 °F 39.2 °F 30.24 in Calm     94% 0.13 in 0.00 W/m2
21:40 40.7 °F 39.1 °F 30.24 in Calm     94% 0.09 in 0.00 W/m2
21:45 40.6 °F 39.0 °F 30.24 in South 6.0 mph 11.0 mph 94% 0.08 in 0.00 W/m2
21:50 40.6 °F 39.0 °F 30.24 in South 10.0 mph 10.0 mph 94% 0.06 in 0.00 W/m2
21:55 40.5 °F 38.9 °F 30.24 in SSE 6.0 mph 11.0 mph 94% 0.06 in 0.00 W/m2
22:00 40.5 °F 38.9 °F 30.24 in South 2.0 mph 9.0 mph 94% 0.05 in 0.00 W/m2
22:05 40.3 °F 38.7 °F 30.24 in Calm   2.0 mph 94% 0.00 in 0.00 W/m2
22:10 40.3 °F 38.7 °F 30.24 in Calm   1.0 mph 94% 0.00 in 0.00 W/m2
22:15 40.2 °F 38.6 °F 30.24 in Calm   1.0 mph 94% 0.00 in 0.00 W/m2
22:20 40.2 °F 38.6 °F 30.24 in Calm   1.0 mph 94% 0.00 in 0.00 W/m2
22:25 40.2 °F 38.6 °F 30.24 in South 7.0 mph 10.0 mph 94% 0.00 in 0.00 W/m2
22:30 40.1 °F 38.5 °F 30.24 in SSE 8.0 mph 11.0 mph 94% 0.00 in 0.00 W/m2
22:35 40.1 °F 38.5 °F 30.24 in SSE 6.0 mph 8.0 mph 94% 0.00 in 0.00 W/m2
22:40 40.1 °F 38.5 °F 30.24 in SSE 6.0 mph 9.0 mph 94% 0.00 in 0.00 W/m2
22:45 40.1 °F 38.5 °F 30.24 in SSE 4.0 mph 9.0 mph 94% 0.00 in 0.00 W/m2
22:50 40.1 °F 38.5 °F 30.23 in South 3.0 mph 10.0 mph 94% 0.00 in 0.00 W/m2
22:55 40.2 °F 38.6 °F 30.23 in SSW 4.0 mph 9.0 mph 94% 0.00 in 0.00 W/m2
23:00 40.2 °F 38.6 °F 30.23 in Calm   14.0 mph 94% 0.00 in 0.00 W/m2
23:05 40.2 °F 38.6 °F 30.24 in SW 3.0 mph 11.0 mph 94% 0.00 in 0.00 W/m2
23:10 40.3 °F 38.7 °F 30.24 in South 5.0 mph 17.0 mph 94% 0.10 in 0.00 W/m2
23:15 40.3 °F 38.7 °F 30.24 in SW 4.0 mph 15.0 mph 94% 0.14 in 0.00 W/m2
23:20 40.3 °F 38.7 °F 30.24 in SW 6.0 mph 18.0 mph 94% 0.18 in 0.00 W/m2
23:25 40.3 °F 38.7 °F 30.24 in SSW 5.0 mph 14.0 mph 94% 0.17 in 0.00 W/m2
23:30 40.2 °F 38.6 °F 30.24 in SW 4.0 mph 12.0 mph 94% 0.08 in 0.00 W/m2
23:35 40.2 °F 38.6 °F 30.24 in SSE 10.0 mph 12.0 mph 94% 0.05 in 0.00 W/m2
23:40 40.2 °F 38.6 °F 30.24 in SW 3.0 mph 16.0 mph 94% 0.00 in 0.00 W/m2
23:45 40.2 °F 38.6 °F 30.23 in South 7.0 mph 15.0 mph 94% 0.00 in 0.00 W/m2
23:50 40.2 °F 38.6 °F 30.23 in SSW 6.0 mph 10.0 mph 94% 0.00 in 0.00 W/m2
23:55 40.2 °F 38.6 °F 30.23 in SSE 4.0 mph 13.0 mph 94% 0.00 in 0.00 W/m2
Foresthill Weather
 WU-history PHP script courtesy of   Juneau County Weather.
powered by Cumulus v1.9.3 (1059)
Ambient Weather VWS v14.00
Top Contact Website Map Copyright © 2007 - 2018 Foresthillweather.com Never base important decisions on this or any weather information obtained from the Internet